Snover, Michigan
Current Conditions -  °F | °C
As of 4:15 PM on Thursday 20 Nov 2014 (Local Time) from KBAX Reporting Station
Clear Clear  
Wind Chill: -12°   Ceiling: Unl
Heat Index: -6°   Visibility: 10mi
Dew Point: -12°   Wind: 12mph
Humidity: 64%   Direction: 270°W
Pressure: 29.89"   Gusts: 21mph
Location:  43.46°N, 82.97°W
Report Text: KBAX 202115Z AUTO 27010G18KT 10SM CLR M06/M12 A2989 RMK AO2 T10581116
Loading
Personal Weather Stations






























Interactive Weather Map New forecast layout! Learn more

10-Day Weather Forecast

Advertisements
Track Severe Weather on mobile